createdAt,value
2022-08-26T00:01:52.626Z,100821.28
2022-08-26T00:04:20.811Z,100834.03
2022-08-26T00:06:47.707Z,100830.69
2022-08-26T00:09:16.093Z,100831.97
2022-08-26T00:11:45.462Z,100836.00
2022-08-26T00:14:13.968Z,100828.22
2022-08-26T00:16:47.466Z,100832.69
2022-08-26T00:19:16.247Z,100826.31
2022-08-26T00:21:43.478Z,100830.91
2022-08-26T00:24:10.477Z,100830.34
2022-08-26T00:26:37.796Z,100834.41
2022-08-26T00:29:05.109Z,100831.94
2022-08-26T00:31:32.717Z,100824.63
2022-08-26T00:34:00.164Z,100819.09
2022-08-26T00:36:29.688Z,100825.56
2022-08-26T00:38:57.338Z,100824.41
2022-08-26T00:41:24.063Z,100825.69
2022-08-26T00:43:51.238Z,100826.97
2022-08-26T00:46:25.613Z,100821.84
2022-08-26T00:49:12.319Z,100825.72
2022-08-26T00:51:49.815Z,100826.25
2022-08-26T00:54:19.110Z,100822.81
2022-08-26T00:56:55.867Z,100821.75
2022-08-26T00:59:23.967Z,100826.94
2022-08-26T01:01:51.630Z,100820.34
2022-08-26T01:04:22.760Z,100821.75
2022-08-26T01:06:53.023Z,100822.94
2022-08-26T01:09:21.635Z,100822.13
2022-08-26T01:11:51.023Z,100827.63
2022-08-26T01:14:20.124Z,100822.69
2022-08-26T01:16:47.988Z,100831.28
2022-08-26T01:19:44.773Z,100836.09
2022-08-26T01:22:28.331Z,100853.28
2022-08-26T01:24:57.830Z,100866.63
2022-08-26T01:27:24.894Z,100865.81
2022-08-26T01:29:52.030Z,100864.81
2022-08-26T01:32:23.428Z,100869.06
2022-08-26T01:34:51.007Z,100872.06
2022-08-26T01:37:33.142Z,100869.91
2022-08-26T01:40:00.527Z,100876.22
2022-08-26T01:42:29.216Z,100865.38
2022-08-26T01:45:26.649Z,100867.25
2022-08-26T01:47:57.042Z,100871.03
2022-08-26T01:50:30.149Z,100872.38
2022-08-26T01:53:00.415Z,100873.72
2022-08-26T01:55:32.602Z,100872.00
2022-08-26T01:58:04.792Z,100873.00
2022-08-26T02:00:35.140Z,100874.09
2022-08-26T02:03:17.126Z,100860.97
2022-08-26T02:05:48.933Z,100864.63
2022-08-26T02:08:25.299Z,100861.47
2022-08-26T02:10:54.646Z,100871.69
2022-08-26T02:13:23.360Z,100869.41
2022-08-26T02:15:52.313Z,100867.31
2022-08-26T02:18:19.548Z,100859.84
2022-08-26T02:20:46.358Z,100867.66
2022-08-26T02:23:13.120Z,100866.81
2022-08-26T02:25:42.416Z,100863.44
2022-08-26T02:28:10.942Z,100873.50
2022-08-26T02:30:40.063Z,100872.06
2022-08-26T02:33:07.480Z,100877.19
2022-08-26T02:35:36.674Z,100876.31
2022-08-26T02:38:10.249Z,100867.81
2022-08-26T02:40:41.328Z,100870.97
2022-08-26T02:43:09.877Z,100879.97
2022-08-26T02:45:36.788Z,100878.50
2022-08-26T02:48:10.882Z,100874.06
2022-08-26T02:50:38.661Z,100871.06
2022-08-26T02:53:09.139Z,100871.06
2022-08-26T02:55:37.021Z,100865.50
2022-08-26T02:58:04.807Z,100875.94
2022-08-26T03:00:31.919Z,100881.97
2022-08-26T03:02:59.290Z,100880.50
2022-08-26T03:05:26.354Z,100879.91
2022-08-26T03:07:53.057Z,100884.59
2022-08-26T03:10:21.737Z,100876.94
2022-08-26T03:12:49.146Z,100883.69
2022-08-26T03:15:19.811Z,100886.03
2022-08-26T03:17:48.166Z,100883.13
2022-08-26T03:20:17.355Z,100880.00
2022-08-26T03:22:44.850Z,100880.03
2022-08-26T03:25:15.039Z,100884.00
2022-08-26T03:27:42.995Z,100885.69
2022-08-26T03:30:30.612Z,100880.53
2022-08-26T03:32:57.604Z,100885.13
2022-08-26T03:35:25.861Z,100877.66
2022-08-26T03:37:53.516Z,100892.81
2022-08-26T03:40:21.324Z,100887.84
2022-08-26T03:42:49.513Z,100883.53
2022-08-26T03:45:18.129Z,100889.31
2022-08-26T03:47:46.293Z,100894.69
2022-08-26T03:50:18.219Z,100895.34
2022-08-26T03:52:51.700Z,100901.38
2022-08-26T03:55:19.952Z,100904.25
2022-08-26T03:57:51.133Z,100903.63
2022-08-26T04:00:18.767Z,100907.16
2022-08-26T04:02:48.946Z,100906.53
2022-08-26T04:05:17.663Z,100912.13
2022-08-26T04:07:44.758Z,100905.72
2022-08-26T04:10:14.975Z,100909.88
2022-08-26T04:12:46.278Z,100911.72
2022-08-26T04:15:15.719Z,100897.16
2022-08-26T04:17:42.662Z,100907.13
2022-08-26T04:20:10.356Z,100910.25
2022-08-26T04:22:37.043Z,100897.19
2022-08-26T04:25:04.159Z,100909.41
2022-08-26T04:27:33.803Z,100915.22
2022-08-26T04:30:01.234Z,100914.78
2022-08-26T04:32:28.693Z,100918.09
2022-08-26T04:34:55.638Z,100918.72
2022-08-26T04:37:22.489Z,100911.66
2022-08-26T04:39:54.781Z,100915.19
2022-08-26T04:42:26.067Z,100920.59
2022-08-26T04:44:53.133Z,100927.84
2022-08-26T04:47:19.985Z,100928.47
2022-08-26T04:49:46.927Z,100939.25
2022-08-26T04:52:13.751Z,100938.81
2022-08-26T04:54:42.023Z,100946.06
2022-08-26T04:57:08.893Z,100954.97
2022-08-26T04:59:39.083Z,100960.38
2022-08-26T05:02:07.172Z,100961.38
2022-08-26T05:04:34.332Z,100959.91
2022-08-26T05:07:02.278Z,100969.72
2022-08-26T05:09:30.412Z,100972.81
2022-08-26T05:11:57.627Z,100972.00
2022-08-26T05:14:24.585Z,100979.09
2022-08-26T05:16:52.282Z,100985.31
2022-08-26T05:19:19.592Z,100988.44
2022-08-26T05:21:47.847Z,100990.09
2022-08-26T05:24:15.329Z,100984.91
2022-08-26T05:26:42.548Z,100992.03
2022-08-26T05:29:11.839Z,100998.00
2022-08-26T05:31:38.615Z,100983.94
2022-08-26T05:34:06.034Z,100991.00
2022-08-26T05:36:35.341Z,101002.19
2022-08-26T05:39:05.160Z,101004.69
2022-08-26T05:41:36.603Z,101003.22
2022-08-26T05:44:08.605Z,101004.09
2022-08-26T05:46:36.796Z,101003.47
2022-08-26T05:49:05.691Z,101009.47
2022-08-26T05:51:33.225Z,101015.72
2022-08-26T05:54:02.802Z,101009.06
2022-08-26T05:56:30.867Z,101011.53
2022-08-26T05:58:58.708Z,101008.66
2022-08-26T06:01:27.878Z,101007.19
2022-08-26T06:04:01.662Z,101001.56
2022-08-26T06:06:31.974Z,101009.06
2022-08-26T06:09:00.862Z,101006.97
2022-08-26T06:11:30.624Z,101007.59
2022-08-26T06:14:03.869Z,101014.84
2022-08-26T06:16:34.809Z,101011.53
2022-08-26T06:19:03.693Z,101010.69
2022-08-26T06:21:39.408Z,101014.84
2022-08-26T06:24:30.920Z,101011.53
2022-08-26T06:27:03.550Z,101022.72
2022-08-26T06:29:33.734Z,101025.25
2022-08-26T06:32:02.713Z,101016.94
2022-08-26T06:34:30.632Z,101018.13
2022-08-26T06:37:01.401Z,101025.97
2022-08-26T06:39:30.650Z,101023.88
2022-08-26T06:41:59.144Z,101022.59
2022-08-26T06:44:27.290Z,101027.16
2022-08-26T06:46:54.167Z,101025.50
2022-08-26T06:49:26.801Z,101034.44
2022-08-26T06:51:58.546Z,101037.41
2022-08-26T06:54:26.851Z,101025.72
2022-08-26T06:56:53.947Z,101032.13
2022-08-26T06:59:22.072Z,101032.97
2022-08-26T07:01:49.816Z,101028.78
2022-08-26T07:04:21.750Z,101027.88
2022-08-26T07:06:53.363Z,101032.84
2022-08-26T07:09:25.559Z,101031.09
2022-08-26T07:11:56.272Z,101031.81
2022-08-26T07:14:25.044Z,101026.63
2022-08-26T07:16:53.559Z,101030.59
2022-08-26T07:19:31.207Z,101023.66
2022-08-26T07:22:03.487Z,101016.91
2022-08-26T07:24:32.257Z,101022.63
2022-08-26T07:27:05.437Z,101015.53
2022-08-26T07:29:33.708Z,101029.63
2022-08-26T07:32:01.369Z,101030.91
2022-08-26T07:34:28.615Z,101032.59
2022-08-26T07:36:57.156Z,101030.75
2022-08-26T07:39:26.584Z,101029.47
2022-08-26T07:41:54.214Z,101040.41
2022-08-26T07:44:21.259Z,101041.00
2022-08-26T07:46:52.249Z,101040.44
2022-08-26T07:49:22.393Z,101040.19
2022-08-26T07:51:51.018Z,101053.56
2022-08-26T07:54:18.620Z,101070.47
2022-08-26T07:56:46.274Z,101057.94
2022-08-26T07:59:15.120Z,101071.34
2022-08-26T08:01:44.874Z,101070.69
2022-08-26T08:04:15.346Z,101067.31
2022-08-26T08:06:43.976Z,101070.63
2022-08-26T08:09:12.437Z,101069.34
2022-08-26T08:11:40.069Z,101065.38
2022-08-26T08:14:08.646Z,101073.66
2022-08-26T08:16:42.428Z,101065.09
2022-08-26T08:19:15.005Z,101064.38
2022-08-26T08:21:43.389Z,101069.28
2022-08-26T08:24:11.411Z,101070.75
2022-08-26T08:26:39.280Z,101077.22
2022-08-26T08:29:08.074Z,101077.59
2022-08-26T08:34:23.756Z,101069.50
2022-08-26T08:36:53.335Z,101070.72
2022-08-26T08:39:21.915Z,101066.97
2022-08-26T08:42:00.790Z,101072.53
2022-08-26T08:44:29.769Z,101075.38
2022-08-26T08:47:18.113Z,101061.91
2022-08-26T08:49:45.414Z,101078.78
2022-08-26T08:52:35.529Z,101069.56
2022-08-26T08:55:11.145Z,101063.53
2022-08-26T08:57:53.770Z,101068.06
2022-08-26T09:00:30.329Z,101059.78
2022-08-26T09:03:03.932Z,101066.25
2022-08-26T09:05:42.601Z,101062.72
2022-08-26T09:08:19.879Z,101050.78
2022-08-26T09:10:52.877Z,101062.25
2022-08-26T09:13:25.204Z,101061.00
2022-08-26T09:16:20.203Z,101068.00
2022-08-26T09:18:56.359Z,101070.94
2022-08-26T09:21:25.136Z,101068.69
2022-08-26T09:23:56.792Z,101065.16
2022-08-26T09:26:29.197Z,101063.28
2022-08-26T09:29:08.992Z,101067.78
2022-08-26T09:31:39.267Z,101065.28
2022-08-26T09:34:12.187Z,101066.53
2022-08-26T09:36:48.671Z,101053.25
2022-08-26T09:39:24.401Z,101053.09
2022-08-26T09:42:14.272Z,101050.75
2022-08-26T09:44:55.778Z,101062.91
2022-08-26T09:47:39.518Z,101058.22
2022-08-26T09:50:36.253Z,101060.13
2022-08-26T09:53:12.848Z,101056.63
2022-08-26T09:56:10.231Z,101053.91
2022-08-26T09:58:40.376Z,101054.97
2022-08-26T10:01:35.450Z,101056.75
2022-08-26T10:04:15.122Z,101054.97
2022-08-26T10:06:54.822Z,101052.72
2022-08-26T10:09:23.871Z,101053.59
2022-08-26T10:11:55.300Z,101059.50
2022-08-26T10:14:28.086Z,101066.47
2022-08-26T10:17:21.881Z,101064.41
2022-08-26T10:19:57.708Z,101057.56
2022-08-26T10:22:27.008Z,101063.88
2022-08-26T10:24:57.785Z,101057.97
2022-08-26T10:27:51.157Z,101061.94
2022-08-26T10:30:22.418Z,101059.78
2022-08-26T10:32:54.081Z,101054.63
2022-08-26T10:35:21.423Z,101045.72
2022-08-26T10:37:54.064Z,101048.13
2022-08-26T10:40:27.966Z,101045.53
2022-08-26T10:43:12.700Z,101045.78
2022-08-26T10:45:50.410Z,101040.38
2022-08-26T10:48:24.553Z,101047.75
2022-08-26T10:50:52.253Z,101033.13
2022-08-26T10:53:45.313Z,101035.09
2022-08-26T10:56:51.875Z,101029.56
2022-08-26T10:59:19.647Z,101024.97
2022-08-26T11:02:10.771Z,101023.53
2022-08-26T11:04:51.073Z,101031.69
2022-08-26T11:07:37.641Z,101032.88
2022-08-26T11:10:21.477Z,101027.19
2022-08-26T11:12:51.627Z,101018.22
2022-08-26T11:15:24.752Z,101022.50
2022-08-26T11:17:51.700Z,101023.81
2022-08-26T11:20:42.383Z,101023.31
2022-08-26T11:23:24.378Z,101022.19
2022-08-26T11:26:09.837Z,101021.66
2022-08-26T11:28:44.189Z,101021.06
2022-08-26T11:31:26.792Z,101026.84
2022-08-26T11:33:59.717Z,101023.50
2022-08-26T11:36:38.800Z,101020.59
2022-08-26T11:39:18.151Z,101017.75
2022-08-26T11:41:52.924Z,101020.06
2022-08-26T11:44:25.825Z,101021.78
2022-08-26T11:46:59.687Z,101014.63
2022-08-26T11:49:31.626Z,101004.09
2022-08-26T11:52:20.943Z,101011.69
2022-08-26T11:55:15.679Z,100995.41
2022-08-26T11:57:47.069Z,101005.00
2022-08-26T12:00:24.516Z,100996.72
2022-08-26T12:02:52.374Z,100999.03
2022-08-26T12:05:30.845Z,100994.03
2022-08-26T12:08:03.213Z,100989.84
2022-08-26T12:10:33.975Z,100986.88
2022-08-26T12:13:03.182Z,100996.03
2022-08-26T12:15:32.350Z,100986.66
2022-08-26T12:18:18.176Z,100993.78
2022-08-26T12:20:56.425Z,100990.22
2022-08-26T12:23:36.522Z,100980.03
2022-08-26T12:26:08.534Z,100977.97
2022-08-26T12:28:59.223Z,100959.28
2022-08-26T12:31:27.894Z,100960.47
2022-08-26T12:33:56.694Z,100962.88
2022-08-26T12:36:50.881Z,100960.75
2022-08-26T12:39:28.622Z,100958.81
2022-08-26T12:41:58.211Z,100953.25
2022-08-26T12:44:38.319Z,100952.84
2022-08-26T12:47:09.039Z,100957.25
2022-08-26T12:49:39.512Z,100955.91
2022-08-26T12:52:09.572Z,100954.13
2022-08-26T12:54:56.973Z,100966.38
2022-08-26T12:57:33.320Z,100962.41
2022-08-26T13:00:31.103Z,100958.72
2022-08-26T13:03:00.555Z,100958.50
2022-08-26T13:05:33.989Z,100958.50
2022-08-26T13:08:25.785Z,100955.47
2022-08-26T13:11:05.186Z,100963.84
2022-08-26T13:13:32.132Z,100955.31
2022-08-26T13:16:00.054Z,100952.28
2022-08-26T13:18:27.004Z,100952.78
2022-08-26T13:20:53.944Z,100951.50
2022-08-26T13:23:23.448Z,100946.56
2022-08-26T13:25:51.322Z,100938.22
2022-08-26T13:28:18.658Z,100941.97
2022-08-26T13:30:48.253Z,100937.19
2022-08-26T13:33:16.821Z,100945.84
2022-08-26T13:35:45.219Z,100944.66
2022-08-26T13:38:22.326Z,100939.50
2022-08-26T13:41:00.605Z,100949.53
2022-08-26T13:43:27.789Z,100955.81
2022-08-26T13:45:54.941Z,100948.94
2022-08-26T13:48:23.588Z,100963.97
2022-08-26T13:50:51.950Z,100950.13
2022-08-26T13:53:18.971Z,100960.66
2022-08-26T13:55:46.454Z,100957.06
2022-08-26T13:58:13.829Z,100967.03
2022-08-26T14:00:41.930Z,100962.41
2022-08-26T14:03:13.222Z,100963.13
2022-08-26T14:05:40.842Z,100968.13
2022-08-26T14:08:08.087Z,100972.63
2022-08-26T14:10:35.717Z,100972.28
2022-08-26T14:13:02.633Z,100983.38
2022-08-26T14:15:34.163Z,100973.88
2022-08-26T14:18:03.623Z,100978.59
2022-08-26T14:20:31.689Z,100979.84
2022-08-26T14:23:13.253Z,100985.94
2022-08-26T14:25:41.021Z,100984.91
2022-08-26T14:28:07.835Z,100978.31
2022-08-26T14:30:34.695Z,100984.13
2022-08-26T14:33:02.551Z,100979.78
2022-08-26T14:35:30.671Z,100974.38
2022-08-26T14:37:58.142Z,100985.25
2022-08-26T14:40:30.095Z,100988.19
2022-08-26T14:42:58.790Z,100991.16
2022-08-26T14:45:27.605Z,100987.25
2022-08-26T14:47:56.807Z,100979.78
2022-08-26T14:50:25.485Z,100984.78
2022-08-26T14:53:11.296Z,100979.88
2022-08-26T14:55:41.519Z,100982.03
2022-08-26T14:58:10.191Z,100983.06
2022-08-26T15:00:37.673Z,100987.59
2022-08-26T15:03:05.733Z,100980.28
2022-08-26T15:05:33.974Z,100985.22
2022-08-26T15:08:02.381Z,100990.03
2022-08-26T15:10:29.043Z,100987.78
2022-08-26T15:12:55.967Z,100993.78
2022-08-26T15:15:24.171Z,100995.00
2022-08-26T15:17:51.500Z,100984.84
2022-08-26T15:20:18.434Z,100982.41
2022-08-26T15:22:45.479Z,100984.91
2022-08-26T15:25:13.012Z,100987.41
2022-08-26T15:27:39.885Z,100983.44
2022-08-26T15:30:10.485Z,100992.22
2022-08-26T15:32:37.349Z,100990.25
2022-08-26T15:35:08.826Z,100996.03
2022-08-26T15:37:36.277Z,100990.81
2022-08-26T15:40:04.091Z,100996.03
2022-08-26T15:42:31.023Z,100987.63
2022-08-26T15:44:57.806Z,101001.22
2022-08-26T15:47:24.646Z,100994.22
2022-08-26T15:49:51.493Z,100999.13
2022-08-26T15:52:19.626Z,100995.97
2022-08-26T15:54:46.472Z,100998.13
2022-08-26T15:57:15.312Z,100991.84
2022-08-26T15:59:43.422Z,100992.69
2022-08-26T16:02:10.757Z,101002.03
2022-08-26T16:04:37.714Z,101000.88
2022-08-26T16:07:05.020Z,101004.19
2022-08-26T16:09:31.953Z,100999.22
2022-08-26T16:11:58.866Z,101000.38
2022-08-26T16:14:26.707Z,100998.50
2022-08-26T16:16:53.602Z,100993.78
2022-08-26T16:19:21.171Z,101004.19
2022-08-26T16:21:48.337Z,101003.47
2022-08-26T16:24:15.197Z,101009.03
2022-08-26T16:26:44.037Z,101006.19
2022-08-26T16:29:14.747Z,101009.72
2022-08-26T16:31:42.045Z,101006.88
2022-08-26T16:34:09.887Z,101007.81
2022-08-26T16:36:38.645Z,101016.28
2022-08-26T16:39:07.671Z,101020.03
2022-08-26T16:41:35.227Z,101016.63
2022-08-26T16:44:02.516Z,101018.56
2022-08-26T16:46:30.015Z,101021.94
2022-08-26T16:48:58.592Z,101024.28
2022-08-26T16:51:27.942Z,101011.59
2022-08-26T16:53:56.734Z,101023.97
2022-08-26T16:56:33.547Z,101025.16
2022-08-26T16:59:02.958Z,101016.91
2022-08-26T17:01:30.249Z,101031.00
2022-08-26T17:03:57.370Z,101025.66
2022-08-26T17:06:24.301Z,101005.47
2022-08-26T17:08:51.005Z,101014.91
2022-08-26T17:11:17.894Z,101020.56
2022-08-26T17:13:44.833Z,101011.53
2022-08-26T17:16:13.274Z,101017.59
2022-08-26T17:18:40.655Z,101015.44
2022-08-26T17:21:11.619Z,101023.22
2022-08-26T17:23:39.674Z,101019.31
2022-08-26T17:26:07.487Z,101000.69
2022-08-26T17:28:34.473Z,101027.66
2022-08-26T17:31:01.834Z,101030.13
2022-08-26T17:33:29.316Z,101021.84
2022-08-26T17:36:00.545Z,101052.88
2022-08-26T17:38:29.332Z,101033.59
2022-08-26T17:40:57.469Z,101042.38
2022-08-26T17:43:26.885Z,101032.03
2022-08-26T17:46:00.066Z,101045.59
2022-08-26T17:48:35.706Z,101034.44
2022-08-26T17:51:14.019Z,101063.81
2022-08-26T17:53:41.786Z,101058.09
2022-08-26T17:56:11.590Z,101074.63
2022-08-26T17:58:40.731Z,101075.91
2022-08-26T18:01:19.573Z,101071.56
2022-08-26T18:03:46.487Z,101068.44
2022-08-26T18:06:14.237Z,101069.94
2022-08-26T18:08:41.742Z,101076.41
2022-08-26T18:11:10.890Z,101076.69
2022-08-26T18:13:38.963Z,101081.50
2022-08-26T18:16:14.313Z,101065.16
2022-08-26T18:18:42.270Z,101076.09
2022-08-26T18:21:18.217Z,101081.50
2022-08-26T18:23:46.994Z,101087.75
2022-08-26T18:26:22.485Z,101074.94
2022-08-26T18:28:50.578Z,101085.25
2022-08-26T18:31:18.534Z,101081.94
2022-08-26T18:33:46.129Z,101089.16
2022-08-26T18:36:25.087Z,101097.28
2022-08-26T18:38:55.096Z,101092.53
2022-08-26T18:41:25.054Z,101084.41
2022-08-26T18:43:53.292Z,101094.44
2022-08-26T18:46:33.076Z,101091.91
2022-08-26T18:49:03.433Z,101091.31
2022-08-26T18:51:33.673Z,101078.06
2022-08-26T18:54:03.174Z,101094.84
2022-08-26T18:56:30.512Z,101098.00
2022-08-26T18:58:59.255Z,101095.69
2022-08-26T19:01:28.320Z,101090.53
2022-08-26T19:03:59.527Z,101101.91
2022-08-26T19:06:28.374Z,101090.50
2022-08-26T19:08:55.845Z,101093.19
2022-08-26T19:11:31.593Z,101095.88
2022-08-26T19:14:00.940Z,101105.69
2022-08-26T19:16:28.766Z,101099.88
2022-08-26T19:18:56.482Z,101101.53
2022-08-26T19:21:24.035Z,101112.78
2022-08-26T19:23:51.501Z,101113.81
2022-08-26T19:26:18.653Z,101114.06
2022-08-26T19:28:45.476Z,101109.06
2022-08-26T19:31:12.754Z,101119.50
2022-08-26T19:33:43.194Z,101119.50
2022-08-26T19:36:18.579Z,101119.72
2022-08-26T19:38:46.097Z,101126.19
2022-08-26T19:41:14.843Z,101128.88
2022-08-26T19:43:42.653Z,101123.03
2022-08-26T19:46:15.350Z,101135.72
2022-08-26T19:48:45.269Z,101129.72
2022-08-26T19:51:15.776Z,101130.16
2022-08-26T19:53:52.851Z,101133.03
2022-08-26T19:56:24.286Z,101092.97
2022-08-26T19:58:51.575Z,101114.13
2022-08-26T20:01:22.240Z,101145.09
2022-08-26T20:03:52.419Z,101122.06
2022-08-26T20:06:20.356Z,101134.50
2022-08-26T20:08:47.910Z,101138.47
2022-08-26T20:11:19.087Z,101132.03
2022-08-26T20:13:47.157Z,101146.56
2022-08-26T20:16:15.132Z,101145.94
2022-08-26T20:19:01.780Z,101151.38
2022-08-26T20:21:33.217Z,101158.44
2022-08-26T20:24:13.084Z,101155.06
2022-08-26T20:26:42.238Z,101160.47
2022-08-26T20:29:11.575Z,101152.56
2022-08-26T20:31:39.703Z,101159.22
2022-08-26T20:34:06.924Z,101154.00
2022-08-26T20:36:34.235Z,101169.78
2022-08-26T20:39:01.104Z,101166.84
2022-08-26T20:41:28.731Z,101167.69
2022-08-26T20:43:56.443Z,101179.09
2022-08-26T20:46:25.244Z,101186.94
2022-08-26T20:48:53.340Z,101190.03
2022-08-26T20:51:21.614Z,101191.63
2022-08-26T20:53:48.547Z,101202.88
2022-08-26T20:56:21.862Z,101209.53
2022-08-26T20:58:48.798Z,101211.22
2022-08-26T21:01:21.674Z,101210.75
2022-08-26T21:03:54.079Z,101224.91
2022-08-26T21:06:21.877Z,101222.13
2022-08-26T21:08:50.173Z,101224.19
2022-08-26T21:11:19.903Z,101226.50
2022-08-26T21:16:36.337Z,101227.47
2022-08-26T21:19:07.966Z,101223.91
2022-08-26T21:21:35.407Z,101229.94
2022-08-26T21:24:02.832Z,101235.31
2022-08-26T21:26:29.927Z,101233.38
2022-08-26T21:28:56.891Z,101223.75
2022-08-26T21:31:25.089Z,101221.09
2022-08-26T21:33:52.286Z,101227.44
2022-08-26T21:36:20.107Z,101222.69
2022-08-26T21:38:48.523Z,101224.78
2022-08-26T21:41:19.706Z,101230.97
2022-08-26T21:43:47.744Z,101233.16
2022-08-26T21:46:18.040Z,101226.38
2022-08-26T21:48:50.765Z,101234.69
2022-08-26T21:51:20.777Z,101235.97
2022-08-26T21:53:48.108Z,101237.81
2022-08-26T21:56:17.930Z,101244.25
2022-08-26T21:58:45.472Z,101246.34
2022-08-26T22:01:16.510Z,101247.56
2022-08-26T22:03:47.547Z,101239.16
2022-08-26T22:06:17.943Z,101238.94
2022-08-26T22:08:44.844Z,101247.72
2022-08-26T22:11:15.651Z,101242.25
2022-08-26T22:13:43.640Z,101243.69
2022-08-26T22:16:11.621Z,101243.94
2022-08-26T22:18:39.586Z,101242.84
2022-08-26T22:21:09.734Z,101235.84
2022-08-26T22:23:44.367Z,101233.03
2022-08-26T22:26:15.479Z,101232.72
2022-08-26T22:28:57.451Z,101233.78
2022-08-26T22:31:37.660Z,101231.69
2022-08-26T22:34:11.295Z,101226.72
2022-08-26T22:36:44.169Z,101232.94
2022-08-26T22:39:17.471Z,101242.19
2022-08-26T22:41:45.461Z,101232.63
2022-08-26T22:44:12.718Z,101234.50
2022-08-26T22:46:41.794Z,101223.13
2022-08-26T22:49:15.883Z,101230.53
2022-08-26T22:51:45.239Z,101220.22
2022-08-26T22:54:13.213Z,101211.13
2022-08-26T22:56:40.857Z,101205.34
2022-08-26T22:59:11.275Z,101211.34
2022-08-26T23:01:42.655Z,101206.53
2022-08-26T23:04:11.671Z,101209.84
2022-08-26T23:06:41.306Z,101218.66
2022-08-26T23:09:09.612Z,101215.59
2022-08-26T23:11:38.678Z,101210.44
2022-08-26T23:14:10.400Z,101212.44
2022-08-26T23:16:39.308Z,101213.91
2022-08-26T23:19:08.411Z,101208.06
2022-08-26T23:21:35.617Z,101204.63
2022-08-26T23:24:02.652Z,101199.59
2022-08-26T23:26:31.831Z,101205.69
2022-08-26T23:29:00.742Z,101190.75
2022-08-26T23:31:27.895Z,101199.75
2022-08-26T23:34:13.863Z,101194.13
2022-08-26T23:36:43.400Z,101189.09
2022-08-26T23:39:13.684Z,101197.00
2022-08-26T23:41:40.905Z,101191.44
2022-08-26T23:44:07.918Z,101190.75
2022-08-26T23:46:35.640Z,101199.91
2022-08-26T23:49:02.446Z,101183.75
2022-08-26T23:51:48.272Z,101183.50
2022-08-26T23:54:15.241Z,101186.63
2022-08-26T23:56:42.469Z,101182.66
2022-08-26T23:59:09.522Z,101182.06
